sensor_id;sensor_type;location;lat;lon;timestamp;P1;durP1;ratioP1;P2;durP2;ratioP2
49376;SDS011;35253;34.688;33.040;2023-10-09T00:01:39;13.80;;;8.40;;
49376;SDS011;35253;34.688;33.040;2023-10-09T00:04:09;12.20;;;8.77;;
49376;SDS011;35253;34.688;33.040;2023-10-09T00:06:36;13.02;;;8.18;;
49376;SDS011;35253;34.688;33.040;2023-10-09T00:09:05;12.88;;;9.73;;
49376;SDS011;35253;34.688;33.040;2023-10-09T00:11:58;14.30;;;8.45;;
49376;SDS011;35253;34.688;33.040;2023-10-09T00:14:31;11.13;;;7.97;;
49376;SDS011;35253;34.688;33.040;2023-10-09T00:17:04;11.00;;;7.93;;
49376;SDS011;35253;34.688;33.040;2023-10-09T00:19:35;14.63;;;8.75;;
49376;SDS011;35253;34.688;33.040;2023-10-09T00:22:02;13.77;;;8.18;;
49376;SDS011;35253;34.688;33.040;2023-10-09T00:24:36;9.85;;;7.40;;
49376;SDS011;35253;34.688;33.040;2023-10-09T00:27:06;12.90;;;8.13;;
49376;SDS011;35253;34.688;33.040;2023-10-09T00:29:44;11.50;;;7.50;;
49376;SDS011;35253;34.688;33.040;2023-10-09T00:32:13;15.25;;;7.53;;
49376;SDS011;35253;34.688;33.040;2023-10-09T00:34:58;15.88;;;7.53;;
49376;SDS011;35253;34.688;33.040;2023-10-09T00:37:44;11.18;;;7.53;;
49376;SDS011;35253;34.688;33.040;2023-10-09T00:40:10;10.95;;;7.50;;
49376;SDS011;35253;34.688;33.040;2023-10-09T00:42:47;13.50;;;8.15;;
49376;SDS011;35253;34.688;33.040;2023-10-09T00:45:14;9.48;;;7.50;;
49376;SDS011;35253;34.688;33.040;2023-10-09T00:47:50;10.18;;;7.15;;
49376;SDS011;35253;34.688;33.040;2023-10-09T00:50:21;10.85;;;6.95;;
49376;SDS011;35253;34.688;33.040;2023-10-09T00:52:53;8.38;;;6.85;;
49376;SDS011;35253;34.688;33.040;2023-10-09T00:55:32;13.90;;;6.93;;
49376;SDS011;35253;34.688;33.040;2023-10-09T00:58:08;12.25;;;7.75;;
49376;SDS011;35253;34.688;33.040;2023-10-09T01:00:38;9.85;;;7.18;;
49376;SDS011;35253;34.688;33.040;2023-10-09T01:03:13;9.90;;;7.07;;
49376;SDS011;35253;34.688;33.040;2023-10-09T01:05:44;11.18;;;7.30;;
49376;SDS011;35253;34.688;33.040;2023-10-09T01:08:31;15.18;;;6.95;;
49376;SDS011;35253;34.688;33.040;2023-10-09T01:11:06;9.40;;;6.93;;
49376;SDS011;35253;34.688;33.040;2023-10-09T01:13:35;10.88;;;7.65;;
49376;SDS011;35253;34.688;33.040;2023-10-09T01:16:13;10.80;;;7.68;;
49376;SDS011;35253;34.688;33.040;2023-10-09T01:18:42;14.88;;;8.25;;
49376;SDS011;35253;34.688;33.040;2023-10-09T01:21:11;11.95;;;7.53;;
49376;SDS011;35253;34.688;33.040;2023-10-09T01:23:44;11.20;;;7.40;;
49376;SDS011;35253;34.688;33.040;2023-10-09T01:26:32;15.15;;;8.55;;
49376;SDS011;35253;34.688;33.040;2023-10-09T01:29:23;9.05;;;5.95;;
49376;SDS011;35253;34.688;33.040;2023-10-09T01:31:55;10.85;;;7.75;;
49376;SDS011;35253;34.688;33.040;2023-10-09T01:34:29;9.82;;;7.18;;
49376;SDS011;35253;34.688;33.040;2023-10-09T01:37:19;10.80;;;6.57;;
49376;SDS011;35253;34.688;33.040;2023-10-09T01:39:56;8.35;;;6.35;;
49376;SDS011;35253;34.688;33.040;2023-10-09T01:42:23;7.82;;;6.22;;
49376;SDS011;35253;34.688;33.040;2023-10-09T01:44:55;12.52;;;7.10;;
49376;SDS011;35253;34.688;33.040;2023-10-09T01:47:23;7.85;;;6.40;;
49376;SDS011;35253;34.688;33.040;2023-10-09T01:49:51;10.95;;;6.03;;
49376;SDS011;35253;34.688;33.040;2023-10-09T01:52:18;9.63;;;5.55;;
49376;SDS011;35253;34.688;33.040;2023-10-09T01:54:46;9.68;;;5.30;;
49376;SDS011;35253;34.688;33.040;2023-10-09T01:57:16;8.40;;;5.43;;
49376;SDS011;35253;34.688;33.040;2023-10-09T01:59:49;8.43;;;5.68;;
49376;SDS011;35253;34.688;33.040;2023-10-09T02:02:18;11.18;;;5.47;;
49376;SDS011;35253;34.688;33.040;2023-10-09T02:04:55;7.57;;;4.97;;
49376;SDS011;35253;34.688;33.040;2023-10-09T02:07:37;9.25;;;6.05;;
49376;SDS011;35253;34.688;33.040;2023-10-09T02:10:12;10.32;;;6.28;;
49376;SDS011;35253;34.688;33.040;2023-10-09T02:13:00;7.35;;;5.65;;
49376;SDS011;35253;34.688;33.040;2023-10-09T02:15:37;9.07;;;5.60;;
49376;SDS011;35253;34.688;33.040;2023-10-09T02:18:16;8.98;;;5.90;;
49376;SDS011;35253;34.688;33.040;2023-10-09T02:23:30;8.63;;;5.82;;
49376;SDS011;35253;34.688;33.040;2023-10-09T02:26:11;8.70;;;5.47;;
49376;SDS011;35253;34.688;33.040;2023-10-09T02:28:56;7.75;;;5.00;;
49376;SDS011;35253;34.688;33.040;2023-10-09T02:31:25;6.60;;;4.93;;
49376;SDS011;35253;34.688;33.040;2023-10-09T02:33:54;6.30;;;4.68;;
49376;SDS011;35253;34.688;33.040;2023-10-09T02:36:21;7.30;;;5.60;;
49376;SDS011;35253;34.688;33.040;2023-10-09T02:38:47;8.55;;;5.65;;
49376;SDS011;35253;34.688;33.040;2023-10-09T02:41:17;12.55;;;5.25;;
49376;SDS011;35253;34.688;33.040;2023-10-09T02:43:46;6.65;;;5.18;;
49376;SDS011;35253;34.688;33.040;2023-10-09T02:46:16;8.05;;;5.07;;
49376;SDS011;35253;34.688;33.040;2023-10-09T02:48:55;10.15;;;5.65;;
49376;SDS011;35253;34.688;33.040;2023-10-09T02:51:28;7.40;;;5.10;;
49376;SDS011;35253;34.688;33.040;2023-10-09T02:54:06;7.47;;;4.80;;
49376;SDS011;35253;34.688;33.040;2023-10-09T02:56:43;10.05;;;5.38;;
49376;SDS011;35253;34.688;33.040;2023-10-09T02:59:12;8.98;;;5.72;;
49376;SDS011;35253;34.688;33.040;2023-10-09T03:01:39;8.43;;;5.03;;
49376;SDS011;35253;34.688;33.040;2023-10-09T03:04:07;8.38;;;5.63;;
49376;SDS011;35253;34.688;33.040;2023-10-09T03:06:36;9.55;;;5.22;;
49376;SDS011;35253;34.688;33.040;2023-10-09T03:09:09;8.13;;;6.20;;
49376;SDS011;35253;34.688;33.040;2023-10-09T03:11:45;9.80;;;5.65;;
49376;SDS011;35253;34.688;33.040;2023-10-09T03:14:12;9.43;;;5.90;;
49376;SDS011;35253;34.688;33.040;2023-10-09T03:16:38;7.47;;;5.07;;
49376;SDS011;35253;34.688;33.040;2023-10-09T03:19:03;7.85;;;5.07;;
49376;SDS011;35253;34.688;33.040;2023-10-09T03:21:29;8.30;;;5.10;;
49376;SDS011;35253;34.688;33.040;2023-10-09T03:23:55;9.13;;;5.68;;
49376;SDS011;35253;34.688;33.040;2023-10-09T03:26:22;8.90;;;5.60;;
49376;SDS011;35253;34.688;33.040;2023-10-09T03:28:51;7.25;;;4.80;;
49376;SDS011;35253;34.688;33.040;2023-10-09T03:31:17;10.52;;;5.05;;
49376;SDS011;35253;34.688;33.040;2023-10-09T03:33:43;7.88;;;5.82;;
49376;SDS011;35253;34.688;33.040;2023-10-09T03:36:09;8.52;;;5.28;;
49376;SDS011;35253;34.688;33.040;2023-10-09T03:38:38;7.68;;;5.00;;
49376;SDS011;35253;34.688;33.040;2023-10-09T03:41:04;6.85;;;5.22;;
49376;SDS011;35253;34.688;33.040;2023-10-09T03:43:34;7.90;;;5.82;;
49376;SDS011;35253;34.688;33.040;2023-10-09T03:46:10;13.23;;;5.90;;
49376;SDS011;35253;34.688;33.040;2023-10-09T03:48:56;8.33;;;4.50;;
49376;SDS011;35253;34.688;33.040;2023-10-09T03:51:22;9.60;;;5.40;;
49376;SDS011;35253;34.688;33.040;2023-10-09T03:53:49;8.65;;;4.97;;
49376;SDS011;35253;34.688;33.040;2023-10-09T03:56:18;9.00;;;5.60;;
49376;SDS011;35253;34.688;33.040;2023-10-09T03:58:49;10.32;;;5.85;;
49376;SDS011;35253;34.688;33.040;2023-10-09T04:01:19;6.18;;;4.72;;
49376;SDS011;35253;34.688;33.040;2023-10-09T04:03:55;9.88;;;5.35;;
49376;SDS011;35253;34.688;33.040;2023-10-09T04:08:58;7.97;;;5.28;;
49376;SDS011;35253;34.688;33.040;2023-10-09T04:11:26;8.13;;;5.43;;
49376;SDS011;35253;34.688;33.040;2023-10-09T04:13:52;12.30;;;6.90;;
49376;SDS011;35253;34.688;33.040;2023-10-09T04:16:19;9.65;;;6.25;;
49376;SDS011;35253;34.688;33.040;2023-10-09T04:18:57;8.95;;;5.63;;
49376;SDS011;35253;34.688;33.040;2023-10-09T04:21:24;7.43;;;4.95;;
49376;SDS011;35253;34.688;33.040;2023-10-09T04:24:08;10.98;;;5.60;;
49376;SDS011;35253;34.688;33.040;2023-10-09T04:26:43;11.23;;;5.18;;
49376;SDS011;35253;34.688;33.040;2023-10-09T04:29:19;15.38;;;5.78;;
49376;SDS011;35253;34.688;33.040;2023-10-09T04:31:54;11.93;;;6.18;;
49376;SDS011;35253;34.688;33.040;2023-10-09T04:34:25;12.55;;;5.97;;
49376;SDS011;35253;34.688;33.040;2023-10-09T04:37:00;14.80;;;6.03;;
49376;SDS011;35253;34.688;33.040;2023-10-09T04:39:29;9.25;;;5.47;;
49376;SDS011;35253;34.688;33.040;2023-10-09T04:41:58;12.77;;;6.00;;
49376;SDS011;35253;34.688;33.040;2023-10-09T04:44:42;14.55;;;6.20;;
49376;SDS011;35253;34.688;33.040;2023-10-09T04:47:27;12.18;;;5.32;;
49376;SDS011;35253;34.688;33.040;2023-10-09T04:50:03;10.48;;;5.97;;
49376;SDS011;35253;34.688;33.040;2023-10-09T04:52:51;9.13;;;5.82;;
49376;SDS011;35253;34.688;33.040;2023-10-09T04:55:16;9.32;;;5.57;;
49376;SDS011;35253;34.688;33.040;2023-10-09T04:57:49;17.10;;;5.72;;
49376;SDS011;35253;34.688;33.040;2023-10-09T05:00:34;15.63;;;5.70;;
49376;SDS011;35253;34.688;33.040;2023-10-09T05:03:12;15.32;;;5.60;;
49376;SDS011;35253;34.688;33.040;2023-10-09T05:05:49;15.68;;;5.60;;
49376;SDS011;35253;34.688;33.040;2023-10-09T05:08:24;11.27;;;6.50;;
49376;SDS011;35253;34.688;33.040;2023-10-09T05:16:04;11.55;;;5.60;;
49376;SDS011;35253;34.688;33.040;2023-10-09T05:18:54;8.20;;;5.82;;
49376;SDS011;35253;34.688;33.040;2023-10-09T05:21:35;12.50;;;5.85;;
49376;SDS011;35253;34.688;33.040;2023-10-09T05:24:09;8.88;;;5.38;;
49376;SDS011;35253;34.688;33.040;2023-10-09T05:29:17;18.15;;;6.85;;
49376;SDS011;35253;34.688;33.040;2023-10-09T05:31:50;15.48;;;6.13;;
49376;SDS011;35253;34.688;33.040;2023-10-09T05:34:35;12.07;;;5.38;;
49376;SDS011;35253;34.688;33.040;2023-10-09T05:37:19;14.13;;;5.60;;
49376;SDS011;35253;34.688;33.040;2023-10-09T05:39:53;11.07;;;5.43;;
49376;SDS011;35253;34.688;33.040;2023-10-09T05:42:32;8.77;;;4.72;;
49376;SDS011;35253;34.688;33.040;2023-10-09T05:45:05;11.60;;;4.82;;
49376;SDS011;35253;34.688;33.040;2023-10-09T05:47:51;9.48;;;4.85;;
49376;SDS011;35253;34.688;33.040;2023-10-09T05:50:29;17.27;;;4.43;;
49376;SDS011;35253;34.688;33.040;2023-10-09T05:52:58;9.80;;;5.43;;
49376;SDS011;35253;34.688;33.040;2023-10-09T05:55:27;15.88;;;7.85;;
49376;SDS011;35253;34.688;33.040;2023-10-09T05:58:13;11.50;;;5.65;;
49376;SDS011;35253;34.688;33.040;2023-10-09T06:00:57;11.20;;;6.63;;
49376;SDS011;35253;34.688;33.040;2023-10-09T06:03:41;10.43;;;5.20;;
49376;SDS011;35253;34.688;33.040;2023-10-09T06:06:25;13.38;;;6.53;;
49376;SDS011;35253;34.688;33.040;2023-10-09T06:09:09;15.23;;;5.95;;
49376;SDS011;35253;34.688;33.040;2023-10-09T06:11:39;12.35;;;5.40;;
49376;SDS011;35253;34.688;33.040;2023-10-09T06:14:18;10.38;;;5.45;;
49376;SDS011;35253;34.688;33.040;2023-10-09T06:16:52;8.88;;;5.65;;
49376;SDS011;35253;34.688;33.040;2023-10-09T06:19:50;16.57;;;7.57;;
49376;SDS011;35253;34.688;33.040;2023-10-09T06:22:23;11.10;;;6.63;;
49376;SDS011;35253;34.688;33.040;2023-10-09T06:25:01;11.23;;;6.57;;
49376;SDS011;35253;34.688;33.040;2023-10-09T06:27:37;20.65;;;12.77;;
49376;SDS011;35253;34.688;33.040;2023-10-09T06:30:22;13.23;;;8.02;;
49376;SDS011;35253;34.688;33.040;2023-10-09T06:35:33;13.32;;;6.85;;
49376;SDS011;35253;34.688;33.040;2023-10-09T06:38:00;18.50;;;8.35;;
49376;SDS011;35253;34.688;33.040;2023-10-09T06:40:30;13.70;;;8.38;;
49376;SDS011;35253;34.688;33.040;2023-10-09T06:43:18;19.48;;;9.70;;
49376;SDS011;35253;34.688;33.040;2023-10-09T06:45:47;32.60;;;12.15;;
49376;SDS011;35253;34.688;33.040;2023-10-09T06:48:20;25.38;;;14.25;;
49376;SDS011;35253;34.688;33.040;2023-10-09T06:51:02;13.48;;;6.63;;
49376;SDS011;35253;34.688;33.040;2023-10-09T06:53:50;18.77;;;10.52;;
49376;SDS011;35253;34.688;33.040;2023-10-09T06:56:22;17.05;;;10.55;;
49376;SDS011;35253;34.688;33.040;2023-10-09T06:58:51;13.25;;;8.30;;
49376;SDS011;35253;34.688;33.040;2023-10-09T07:01:20;11.37;;;6.90;;
49376;SDS011;35253;34.688;33.040;2023-10-09T07:03:52;11.30;;;7.78;;
49376;SDS011;35253;34.688;33.040;2023-10-09T07:06:19;12.20;;;6.63;;
49376;SDS011;35253;34.688;33.040;2023-10-09T07:08:57;15.80;;;9.07;;
49376;SDS011;35253;34.688;33.040;2023-10-09T07:11:31;28.88;;;14.80;;
49376;SDS011;35253;34.688;33.040;2023-10-09T07:14:06;19.35;;;9.73;;
49376;SDS011;35253;34.688;33.040;2023-10-09T07:16:58;10.55;;;7.22;;
49376;SDS011;35253;34.688;33.040;2023-10-09T07:19:25;14.23;;;9.15;;
49376;SDS011;35253;34.688;33.040;2023-10-09T07:22:21;19.23;;;9.95;;
49376;SDS011;35253;34.688;33.040;2023-10-09T07:27:23;24.02;;;10.18;;
49376;SDS011;35253;34.688;33.040;2023-10-09T07:30:08;20.00;;;9.43;;
49376;SDS011;35253;34.688;33.040;2023-10-09T07:32:55;13.55;;;8.70;;
49376;SDS011;35253;34.688;33.040;2023-10-09T07:35:36;11.48;;;9.77;;
49376;SDS011;35253;34.688;33.040;2023-10-09T07:38:14;21.02;;;9.57;;
49376;SDS011;35253;34.688;33.040;2023-10-09T07:41:00;20.00;;;10.10;;
49376;SDS011;35253;34.688;33.040;2023-10-09T07:43:28;16.85;;;9.60;;
49376;SDS011;35253;34.688;33.040;2023-10-09T07:45:58;12.93;;;8.35;;
49376;SDS011;35253;34.688;33.040;2023-10-09T07:48:33;16.02;;;10.35;;
49376;SDS011;35253;34.688;33.040;2023-10-09T07:51:14;15.65;;;8.70;;
49376;SDS011;35253;34.688;33.040;2023-10-09T07:53:41;17.63;;;10.27;;
49376;SDS011;35253;34.688;33.040;2023-10-09T07:56:13;17.60;;;10.32;;
49376;SDS011;35253;34.688;33.040;2023-10-09T07:58:46;15.23;;;9.73;;
49376;SDS011;35253;34.688;33.040;2023-10-09T08:01:13;30.63;;;15.88;;
49376;SDS011;35253;34.688;33.040;2023-10-09T08:03:59;28.92;;;12.85;;
49376;SDS011;35253;34.688;33.040;2023-10-09T08:06:39;24.23;;;14.02;;
49376;SDS011;35253;34.688;33.040;2023-10-09T08:09:09;18.55;;;11.85;;
49376;SDS011;35253;34.688;33.040;2023-10-09T08:11:55;18.45;;;11.13;;
49376;SDS011;35253;34.688;33.040;2023-10-09T08:14:21;21.08;;;10.13;;
49376;SDS011;35253;34.688;33.040;2023-10-09T08:16:59;14.60;;;9.50;;
49376;SDS011;35253;34.688;33.040;2023-10-09T08:19:39;12.77;;;7.57;;
49376;SDS011;35253;34.688;33.040;2023-10-09T08:22:29;13.20;;;8.85;;
49376;SDS011;35253;34.688;33.040;2023-10-09T08:24:55;15.50;;;9.75;;
49376;SDS011;35253;34.688;33.040;2023-10-09T08:27:25;21.80;;;11.10;;
49376;SDS011;35253;34.688;33.040;2023-10-09T08:30:04;14.80;;;9.18;;
49376;SDS011;35253;34.688;33.040;2023-10-09T08:33:00;19.52;;;9.50;;
49376;SDS011;35253;34.688;33.040;2023-10-09T08:35:33;14.77;;;8.82;;
49376;SDS011;35253;34.688;33.040;2023-10-09T08:38:00;18.83;;;11.40;;
49376;SDS011;35253;34.688;33.040;2023-10-09T08:40:34;14.07;;;10.02;;
49376;SDS011;35253;34.688;33.040;2023-10-09T08:43:13;12.82;;;9.13;;
49376;SDS011;35253;34.688;33.040;2023-10-09T08:45:45;16.45;;;10.45;;
49376;SDS011;35253;34.688;33.040;2023-10-09T08:48:12;22.85;;;13.32;;
49376;SDS011;35253;34.688;33.040;2023-10-09T08:50:42;18.55;;;9.77;;
49376;SDS011;35253;34.688;33.040;2023-10-09T08:53:15;14.77;;;9.57;;
49376;SDS011;35253;34.688;33.040;2023-10-09T08:55:41;15.27;;;10.48;;
49376;SDS011;35253;34.688;33.040;2023-10-09T08:58:08;12.02;;;8.52;;
49376;SDS011;35253;34.688;33.040;2023-10-09T09:00:45;17.98;;;8.63;;
49376;SDS011;35253;34.688;33.040;2023-10-09T09:03:13;24.50;;;13.60;;
49376;SDS011;35253;34.688;33.040;2023-10-09T09:05:43;15.30;;;9.33;;
49376;SDS011;35253;34.688;33.040;2023-10-09T09:08:20;24.63;;;15.45;;
49376;SDS011;35253;34.688;33.040;2023-10-09T09:10:51;11.35;;;8.93;;
49376;SDS011;35253;34.688;33.040;2023-10-09T09:13:47;30.70;;;18.02;;
49376;SDS011;35253;34.688;33.040;2023-10-09T09:16:39;18.55;;;12.55;;
49376;SDS011;35253;34.688;33.040;2023-10-09T09:19:09;21.08;;;11.68;;
49376;SDS011;35253;34.688;33.040;2023-10-09T09:21:39;13.65;;;9.98;;
49376;SDS011;35253;34.688;33.040;2023-10-09T09:24:08;10.13;;;8.18;;
49376;SDS011;35253;34.688;33.040;2023-10-09T09:26:47;16.77;;;10.48;;
49376;SDS011;35253;34.688;33.040;2023-10-09T09:29:24;23.25;;;12.05;;
49376;SDS011;35253;34.688;33.040;2023-10-09T09:32:28;20.20;;;12.75;;
49376;SDS011;35253;34.688;33.040;2023-10-09T09:35:00;12.00;;;8.63;;
49376;SDS011;35253;34.688;33.040;2023-10-09T09:37:29;15.48;;;11.00;;
49376;SDS011;35253;34.688;33.040;2023-10-09T09:40:19;19.52;;;9.95;;
49376;SDS011;35253;34.688;33.040;2023-10-09T09:43:00;21.38;;;13.80;;
49376;SDS011;35253;34.688;33.040;2023-10-09T09:45:34;15.20;;;9.75;;
49376;SDS011;35253;34.688;33.040;2023-10-09T09:48:04;24.85;;;12.60;;
49376;SDS011;35253;34.688;33.040;2023-10-09T09:50:34;16.65;;;10.15;;
49376;SDS011;35253;34.688;33.040;2023-10-09T09:53:08;18.80;;;12.18;;
49376;SDS011;35253;34.688;33.040;2023-10-09T09:55:39;12.52;;;8.13;;
49376;SDS011;35253;34.688;33.040;2023-10-09T09:58:08;12.20;;;8.77;;
49376;SDS011;35253;34.688;33.040;2023-10-09T10:00:45;15.05;;;8.63;;
49376;SDS011;35253;34.688;33.040;2023-10-09T10:03:22;17.52;;;8.85;;
49376;SDS011;35253;34.688;33.040;2023-10-09T10:05:51;11.45;;;8.38;;
49376;SDS011;35253;34.688;33.040;2023-10-09T10:08:21;25.27;;;13.13;;
49376;SDS011;35253;34.688;33.040;2023-10-09T10:10:56;20.05;;;9.90;;
49376;SDS011;35253;34.688;33.040;2023-10-09T10:16:09;18.73;;;11.47;;
49376;SDS011;35253;34.688;33.040;2023-10-09T10:18:54;16.08;;;10.18;;
49376;SDS011;35253;34.688;33.040;2023-10-09T10:21:46;23.63;;;14.50;;
49376;SDS011;35253;34.688;33.040;2023-10-09T10:30:34;14.98;;;9.38;;
49376;SDS011;35253;34.688;33.040;2023-10-09T10:32:56;24.63;;;16.02;;
49376;SDS011;35253;34.688;33.040;2023-10-09T10:35:35;17.27;;;9.23;;
49376;SDS011;35253;34.688;33.040;2023-10-09T10:38:27;14.82;;;11.00;;
49376;SDS011;35253;34.688;33.040;2023-10-09T10:41:16;12.65;;;9.00;;
49376;SDS011;35253;34.688;33.040;2023-10-09T10:46:15;15.50;;;8.88;;
49376;SDS011;35253;34.688;33.040;2023-10-09T10:49:03;16.35;;;9.55;;
49376;SDS011;35253;34.688;33.040;2023-10-09T10:51:45;15.02;;;10.98;;
49376;SDS011;35253;34.688;33.040;2023-10-09T10:54:21;21.13;;;15.43;;
49376;SDS011;35253;34.688;33.040;2023-10-09T10:56:57;18.25;;;9.15;;
49376;SDS011;35253;34.688;33.040;2023-10-09T10:59:23;19.52;;;10.27;;
49376;SDS011;35253;34.688;33.040;2023-10-09T11:01:51;21.35;;;11.98;;
49376;SDS011;35253;34.688;33.040;2023-10-09T11:04:27;23.48;;;11.77;;
49376;SDS011;35253;34.688;33.040;2023-10-09T11:06:59;47.42;;;23.75;;
49376;SDS011;35253;34.688;33.040;2023-10-09T11:09:44;20.23;;;11.18;;
49376;SDS011;35253;34.688;33.040;2023-10-09T11:12:29;20.25;;;10.48;;
49376;SDS011;35253;34.688;33.040;2023-10-09T11:15:35;17.63;;;10.43;;
49376;SDS011;35253;34.688;33.040;2023-10-09T11:18:22;18.48;;;11.05;;
49376;SDS011;35253;34.688;33.040;2023-10-09T11:20:53;18.02;;;9.95;;
49376;SDS011;35253;34.688;33.040;2023-10-09T11:23:29;28.23;;;16.17;;
49376;SDS011;35253;34.688;33.040;2023-10-09T11:25:58;19.85;;;11.43;;
49376;SDS011;35253;34.688;33.040;2023-10-09T11:28:43;22.90;;;13.48;;
49376;SDS011;35253;34.688;33.040;2023-10-09T11:31:14;21.58;;;12.25;;
49376;SDS011;35253;34.688;33.040;2023-10-09T11:33:48;17.75;;;11.07;;
49376;SDS011;35253;34.688;33.040;2023-10-09T11:36:17;18.92;;;10.43;;
49376;SDS011;35253;34.688;33.040;2023-10-09T11:38:54;15.77;;;8.45;;
49376;SDS011;35253;34.688;33.040;2023-10-09T11:41:39;13.63;;;9.13;;
49376;SDS011;35253;34.688;33.040;2023-10-09T11:44:09;19.92;;;11.38;;
49376;SDS011;35253;34.688;33.040;2023-10-09T11:47:18;13.13;;;9.02;;
49376;SDS011;35253;34.688;33.040;2023-10-09T11:49:49;17.90;;;9.18;;
49376;SDS011;35253;34.688;33.040;2023-10-09T11:52:31;11.55;;;7.60;;
49376;SDS011;35253;34.688;33.040;2023-10-09T11:55:04;19.67;;;12.10;;
49376;SDS011;35253;34.688;33.040;2023-10-09T11:57:41;18.85;;;10.85;;
49376;SDS011;35253;34.688;33.040;2023-10-09T12:00:07;19.27;;;10.48;;
49376;SDS011;35253;34.688;33.040;2023-10-09T12:02:51;16.63;;;9.35;;
49376;SDS011;35253;34.688;33.040;2023-10-09T12:05:17;15.13;;;8.10;;
49376;SDS011;35253;34.688;33.040;2023-10-09T12:07:47;10.65;;;8.02;;
49376;SDS011;35253;34.688;33.040;2023-10-09T12:10:20;11.25;;;8.35;;
49376;SDS011;35253;34.688;33.040;2023-10-09T12:12:52;21.15;;;10.63;;
49376;SDS011;35253;34.688;33.040;2023-10-09T12:15:23;15.23;;;8.88;;
49376;SDS011;35253;34.688;33.040;2023-10-09T12:17:50;25.00;;;13.80;;
49376;SDS011;35253;34.688;33.040;2023-10-09T12:20:18;12.95;;;7.07;;
49376;SDS011;35253;34.688;33.040;2023-10-09T12:22:59;14.18;;;8.45;;
49376;SDS011;35253;34.688;33.040;2023-10-09T12:25:30;13.48;;;7.07;;
49376;SDS011;35253;34.688;33.040;2023-10-09T12:27:58;17.63;;;8.82;;
49376;SDS011;35253;34.688;33.040;2023-10-09T12:30:26;11.90;;;7.60;;
49376;SDS011;35253;34.688;33.040;2023-10-09T12:32:53;14.68;;;9.73;;
49376;SDS011;35253;34.688;33.040;2023-10-09T12:35:20;18.88;;;11.07;;
49376;SDS011;35253;34.688;33.040;2023-10-09T12:37:46;13.85;;;8.48;;
49376;SDS011;35253;34.688;33.040;2023-10-09T12:40:12;13.05;;;8.10;;
49376;SDS011;35253;34.688;33.040;2023-10-09T12:42:38;13.95;;;8.98;;
49376;SDS011;35253;34.688;33.040;2023-10-09T12:45:05;17.25;;;10.07;;
49376;SDS011;35253;34.688;33.040;2023-10-09T12:47:34;15.48;;;8.80;;
49376;SDS011;35253;34.688;33.040;2023-10-09T12:50:05;20.95;;;11.38;;
49376;SDS011;35253;34.688;33.040;2023-10-09T12:52:39;22.08;;;11.35;;
49376;SDS011;35253;34.688;33.040;2023-10-09T12:55:05;17.38;;;11.40;;
49376;SDS011;35253;34.688;33.040;2023-10-09T12:57:33;19.52;;;10.48;;
49376;SDS011;35253;34.688;33.040;2023-10-09T12:59:58;21.27;;;10.45;;
49376;SDS011;35253;34.688;33.040;2023-10-09T13:02:24;23.38;;;12.43;;
49376;SDS011;35253;34.688;33.040;2023-10-09T13:04:56;23.88;;;13.20;;
49376;SDS011;35253;34.688;33.040;2023-10-09T13:07:22;10.82;;;7.97;;
49376;SDS011;35253;34.688;33.040;2023-10-09T13:09:48;14.88;;;9.57;;
49376;SDS011;35253;34.688;33.040;2023-10-09T13:12:43;14.27;;;8.02;;
49376;SDS011;35253;34.688;33.040;2023-10-09T13:15:09;15.60;;;9.82;;
49376;SDS011;35253;34.688;33.040;2023-10-09T13:17:36;16.92;;;9.10;;
49376;SDS011;35253;34.688;33.040;2023-10-09T13:20:03;20.27;;;11.93;;
49376;SDS011;35253;34.688;33.040;2023-10-09T13:22:40;9.40;;;7.97;;
49376;SDS011;35253;34.688;33.040;2023-10-09T13:25:10;20.88;;;10.05;;
49376;SDS011;35253;34.688;33.040;2023-10-09T13:27:49;8.85;;;6.72;;
49376;SDS011;35253;34.688;33.040;2023-10-09T13:30:18;15.10;;;9.03;;
49376;SDS011;35253;34.688;33.040;2023-10-09T13:32:48;14.05;;;7.20;;
49376;SDS011;35253;34.688;33.040;2023-10-09T13:35:15;10.55;;;6.55;;
49376;SDS011;35253;34.688;33.040;2023-10-09T13:37:47;10.23;;;6.03;;
49376;SDS011;35253;34.688;33.040;2023-10-09T13:40:21;20.25;;;9.77;;
49376;SDS011;35253;34.688;33.040;2023-10-09T13:42:56;17.35;;;9.88;;
49376;SDS011;35253;34.688;33.040;2023-10-09T13:45:27;19.58;;;10.73;;
49376;SDS011;35253;34.688;33.040;2023-10-09T13:47:56;14.65;;;7.50;;
49376;SDS011;35253;34.688;33.040;2023-10-09T13:50:25;19.63;;;11.50;;
49376;SDS011;35253;34.688;33.040;2023-10-09T13:52:58;23.95;;;12.85;;
49376;SDS011;35253;34.688;33.040;2023-10-09T13:55:24;21.48;;;8.95;;
49376;SDS011;35253;34.688;33.040;2023-10-09T13:57:57;19.73;;;10.43;;
49376;SDS011;35253;34.688;33.040;2023-10-09T14:00:23;20.48;;;10.30;;
49376;SDS011;35253;34.688;33.040;2023-10-09T14:03:02;12.93;;;8.27;;
49376;SDS011;35253;34.688;33.040;2023-10-09T14:05:37;16.27;;;9.38;;
49376;SDS011;35253;34.688;33.040;2023-10-09T14:08:09;11.82;;;7.95;;
49376;SDS011;35253;34.688;33.040;2023-10-09T14:10:37;23.25;;;13.82;;
49376;SDS011;35253;34.688;33.040;2023-10-09T14:13:04;21.95;;;8.95;;
49376;SDS011;35253;34.688;33.040;2023-10-09T14:15:37;21.52;;;10.88;;
49376;SDS011;35253;34.688;33.040;2023-10-09T14:18:06;10.40;;;7.60;;
49376;SDS011;35253;34.688;33.040;2023-10-09T14:20:37;13.85;;;8.63;;
49376;SDS011;35253;34.688;33.040;2023-10-09T14:23:06;11.98;;;7.55;;
49376;SDS011;35253;34.688;33.040;2023-10-09T14:25:36;16.83;;;9.45;;
49376;SDS011;35253;34.688;33.040;2023-10-09T14:28:07;21.70;;;12.98;;
49376;SDS011;35253;34.688;33.040;2023-10-09T14:30:38;16.85;;;10.52;;
49376;SDS011;35253;34.688;33.040;2023-10-09T14:33:11;25.98;;;14.65;;
49376;SDS011;35253;34.688;33.040;2023-10-09T14:35:48;16.58;;;11.07;;
49376;SDS011;35253;34.688;33.040;2023-10-09T14:38:14;13.32;;;9.35;;
49376;SDS011;35253;34.688;33.040;2023-10-09T14:40:44;25.60;;;15.57;;
49376;SDS011;35253;34.688;33.040;2023-10-09T14:43:10;25.83;;;14.63;;
49376;SDS011;35253;34.688;33.040;2023-10-09T14:45:46;11.07;;;8.45;;
49376;SDS011;35253;34.688;33.040;2023-10-09T14:48:14;19.42;;;10.85;;
49376;SDS011;35253;34.688;33.040;2023-10-09T14:50:46;19.50;;;12.50;;
49376;SDS011;35253;34.688;33.040;2023-10-09T14:53:13;16.42;;;9.60;;
49376;SDS011;35253;34.688;33.040;2023-10-09T14:55:40;17.83;;;9.93;;
49376;SDS011;35253;34.688;33.040;2023-10-09T14:58:10;16.10;;;9.60;;
49376;SDS011;35253;34.688;33.040;2023-10-09T15:00:37;50.20;;;11.23;;
49376;SDS011;35253;34.688;33.040;2023-10-09T15:03:03;18.48;;;9.75;;
49376;SDS011;35253;34.688;33.040;2023-10-09T15:05:29;17.30;;;10.80;;
49376;SDS011;35253;34.688;33.040;2023-10-09T15:07:58;21.15;;;11.05;;
49376;SDS011;35253;34.688;33.040;2023-10-09T15:10:25;22.05;;;12.90;;
49376;SDS011;35253;34.688;33.040;2023-10-09T15:12:53;16.67;;;10.80;;
49376;SDS011;35253;34.688;33.040;2023-10-09T15:15:18;43.83;;;22.27;;
49376;SDS011;35253;34.688;33.040;2023-10-09T15:17:50;26.50;;;14.73;;
49376;SDS011;35253;34.688;33.040;2023-10-09T15:20:16;18.60;;;10.45;;
49376;SDS011;35253;34.688;33.040;2023-10-09T15:22:41;18.23;;;11.95;;
49376;SDS011;35253;34.688;33.040;2023-10-09T15:25:08;16.92;;;10.48;;
49376;SDS011;35253;34.688;33.040;2023-10-09T15:27:34;22.08;;;10.80;;
49376;SDS011;35253;34.688;33.040;2023-10-09T15:29:59;24.60;;;14.27;;